Accueil
METAR-TAF:

METAR-TAF

Aéroports :

Aéroport de Dresde

Dresde, Allemagne

latitude: 51-08N, longitude: 013-45E, altitude: 230 m

Observation

Le bulletin a été fait il y a 12 minutes, à 00:50 UTC
Vent 5 kt de sud/sud-est
Température 12°C
Humidité 76%
Pression 1006 hPa
Visibilité 10 km ou plus
pas de nuages en-dessous de 1500 mètres et pas de cumulonimbus.

METAR: EDDC 070050Z 16005KT CAVOK 12/08 Q1006

Heure: 03:02 (01:02 UTC)

Prévision

Le bulletin a été fait il y a 2 heures et 2 minutes, à 23:00 UTC
Prévision valable du 07 à 00 UTC au 07 à 24 UTC
Vent 5 kt de sud
Visibilité 10 km ou plus
pas de nuages en-dessous de 1500 mètres et pas de cumulonimbus.
Temporairement
du 07 à 01 UTC au 07 à 05 UTC
Vent 3 kt de direction variable
Evoluant progressivement
du 07 à 06 UTC au 07 à 09 UTC
Vent 5 kt de ouest

TAF: EDDC 062300Z 0700/0724 18005KT CAVOK TEMPO 0701/0705 VRB03KT BECMG 0706/0709 26005KT

Observations et prévisions météorologiques de plus de 4000 aéroports (messages METAR et TAF).

Les stations disponibles sont représentées par des disques jaunes et rouges sur la carte.

Passer la souris dessus pour voir le nom de la station.

Cliquer dessus pour voir les observations et prévisions météorologiques.

Pour changer de carte: cliquez sur les boutons verts avec une croix noire pour zoomer, sur le bouton vert avec un tiret pour effectuer un zoom arrière, ou sur les flèches vertes pour les cartes adjacentes.


METAR-TAF: